QAK9 MMTJ-MMUN
Flight info
| Callsign | QAK9 |
|---|---|
| Flight time | 4h 29m |
| Altitude | 35000 |
| Route | TEVIR2B TEVIR DCT URSEV DCT AVAPA DCT CUU UJ2 NOTAL DCT VESKO UT11 URTEL UT34 VOMAR VOMAR1A |
| Aircraft | A320/M-SDE3FGHIRWY/LB1 |
Departure
| Time | 2026-04-19 22:09 |
|---|---|
| Airport | General Abelardo L. Rodriguez International Airport (MMTJ) |
Arrival
| Time | 2026-04-20 02:38 |
|---|---|
| Airport | Cancún International Airport (MMUN) |
| Time | Latitude | Longitude | Altitude | Speed | Heading |
|---|---|---|---|---|---|
| 2026-04-19 21:53 | 32.54510 | -116.97649 | 494 ft | 0 kts | 279° |
| 2026-04-19 21:57 | 32.54510 | -116.97647 | 494 ft | 1 kts | 279° |
| 2026-04-19 21:57 | 32.54508 | -116.97618 | 493 ft | 4 kts | 263° |
| 2026-04-19 21:58 | 32.54516 | -116.97589 | 489 ft | 4 kts | 227° |
| 2026-04-19 21:58 | 32.54534 | -116.97575 | 487 ft | 1 kts | 189° |
| 2026-04-19 21:58 | 32.54535 | -116.97575 | 487 ft | 2 kts | 189° |
| 2026-04-19 22:01 | 32.54508 | -116.97579 | 493 ft | 7 kts | 189° |
| 2026-04-19 22:01 | 32.54450 | -116.97591 | 495 ft | 9 kts | 189° |
| 2026-04-19 22:02 | 32.54395 | -116.97575 | 493 ft | 8 kts | 122° |
| 2026-04-19 22:02 | 32.54387 | -116.97512 | 496 ft | 7 kts | 98° |
| 2026-04-19 22:02 | 32.54379 | -116.97445 | 496 ft | 9 kts | 99° |
| 2026-04-19 22:02 | 32.54329 | -116.97403 | 495 ft | 9 kts | 129° |
| 2026-04-19 22:03 | 32.54317 | -116.97333 | 495 ft | 9 kts | 98° |
| 2026-04-19 22:03 | 32.54306 | -116.97251 | 482 ft | 12 kts | 98° |
| 2026-04-19 22:03 | 32.54292 | -116.97142 | 495 ft | 13 kts | 99° |
| 2026-04-19 22:03 | 32.54278 | -116.97037 | 495 ft | 13 kts | 98° |
| 2026-04-19 22:04 | 32.54264 | -116.96935 | 495 ft | 12 kts | 99° |
| 2026-04-19 22:04 | 32.54251 | -116.96833 | 492 ft | 13 kts | 99° |
| 2026-04-19 22:04 | 32.54237 | -116.96728 | 493 ft | 13 kts | 99° |
| 2026-04-19 22:04 | 32.54222 | -116.96616 | 497 ft | 14 kts | 99° |
| 2026-04-19 22:05 | 32.54204 | -116.96479 | 498 ft | 19 kts | 98° |
| 2026-04-19 22:05 | 32.54183 | -116.96318 | 488 ft | 20 kts | 99° |
| 2026-04-19 22:05 | 32.54160 | -116.96149 | 496 ft | 21 kts | 98° |
| 2026-04-19 22:05 | 32.54137 | -116.95974 | 490 ft | 22 kts | 98° |
| 2026-04-19 22:06 | 32.54114 | -116.95802 | 498 ft | 16 kts | 98° |
| 2026-04-19 22:06 | 32.54097 | -116.95672 | 492 ft | 14 kts | 99° |
| 2026-04-19 22:06 | 32.54083 | -116.95564 | 497 ft | 14 kts | 99° |
| 2026-04-19 22:06 | 32.54069 | -116.95460 | 497 ft | 10 kts | 104° |
| 2026-04-19 22:07 | 32.54020 | -116.95432 | 492 ft | 7 kts | 184° |
| 2026-04-19 22:07 | 32.53958 | -116.95444 | 490 ft | 12 kts | 189° |
| 2026-04-19 22:07 | 32.53908 | -116.95507 | 490 ft | 10 kts | 276° |
| 2026-04-19 22:07 | 32.53910 | -116.95517 | 492 ft | 0 kts | 279° |
| 2026-04-19 22:08 | 32.53910 | -116.95521 | 483 ft | 3 kts | 279° |
| 2026-04-19 22:08 | 32.53941 | -116.95753 | 489 ft | 62 kts | 279° |
| 2026-04-19 22:08 | 32.54039 | -116.96487 | 495 ft | 116 kts | 279° |
| 2026-04-19 22:08 | 32.54187 | -116.97607 | 491 ft | 157 kts | 279° |
| 2026-04-19 22:09 | 32.54349 | -116.98984 | 818 ft | 170 kts | 270° |
| 2026-04-19 22:09 | 32.54071 | -117.00353 | 1435 ft | 174 kts | 250° |
| 2026-04-19 22:09 | 32.53637 | -117.01722 | 2032 ft | 181 kts | 248° |
| 2026-04-19 22:09 | 32.53170 | -117.03185 | 2298 ft | 202 kts | 249° |
| 2026-04-19 22:10 | 32.52664 | -117.04851 | 2500 ft | 227 kts | 249° |
| 2026-04-19 22:10 | 32.52127 | -117.06717 | 2880 ft | 251 kts | 250° |
| 2026-04-19 22:10 | 32.51318 | -117.08581 | 3484 ft | 259 kts | 224° |
| 2026-04-19 22:10 | 32.49777 | -117.09649 | 4153 ft | 263 kts | 191° |
| 2026-04-19 22:11 | 32.47970 | -117.09446 | 4947 ft | 266 kts | 156° |
| 2026-04-19 22:11 | 32.46552 | -117.08054 | 5697 ft | 271 kts | 124° |
| 2026-04-19 22:11 | 32.45864 | -117.05981 | 6438 ft | 278 kts | 108° |
| 2026-04-19 22:11 | 32.45358 | -117.03771 | 7238 ft | 279 kts | 107° |
| 2026-04-19 22:12 | 32.44847 | -117.01550 | 8017 ft | 280 kts | 107° |
| 2026-04-19 22:12 | 32.44333 | -116.99325 | 8783 ft | 281 kts | 107° |
| 2026-04-19 22:12 | 32.43771 | -116.97097 | 9495 ft | 284 kts | 112° |
| 2026-04-19 22:12 | 32.42955 | -116.94958 | 10168 ft | 286 kts | 119° |
| 2026-04-19 22:13 | 32.41965 | -116.92820 | 10368 ft | 307 kts | 122° |
| 2026-04-19 22:13 | 32.40842 | -116.90562 | 10491 ft | 329 kts | 122° |
| 2026-04-19 22:13 | 32.39636 | -116.88158 | 10612 ft | 350 kts | 121° |
| 2026-04-19 22:13 | 32.38384 | -116.85616 | 10873 ft | 363 kts | 121° |
| 2026-04-19 22:14 | 32.37126 | -116.82997 | 11398 ft | 369 kts | 121° |
| 2026-04-19 22:14 | 32.35871 | -116.80331 | 11948 ft | 373 kts | 120° |
| 2026-04-19 22:14 | 32.34614 | -116.77634 | 12513 ft | 376 kts | 120° |
| 2026-04-19 22:14 | 32.33261 | -116.75024 | 13053 ft | 379 kts | 126° |
| 2026-04-19 22:15 | 32.31776 | -116.72437 | 13584 ft | 382 kts | 126° |
| 2026-04-19 22:15 | 32.30275 | -116.69829 | 14062 ft | 386 kts | 126° |
| 2026-04-19 22:15 | 32.28759 | -116.67199 | 14528 ft | 389 kts | 126° |
| 2026-04-19 22:15 | 32.27227 | -116.64548 | 14992 ft | 392 kts | 126° |
| 2026-04-19 22:16 | 32.25680 | -116.61878 | 15440 ft | 395 kts | 126° |
| 2026-04-19 22:16 | 32.24120 | -116.59189 | 15889 ft | 398 kts | 126° |
| 2026-04-19 22:16 | 32.22552 | -116.56481 | 16358 ft | 400 kts | 126° |
| 2026-04-19 22:16 | 32.20974 | -116.53760 | 16806 ft | 403 kts | 126° |
| 2026-04-19 22:17 | 32.19511 | -116.50916 | 17254 ft | 408 kts | 118° |
| 2026-04-19 22:17 | 32.18295 | -116.47876 | 17722 ft | 411 kts | 117° |
| 2026-04-19 22:17 | 32.17068 | -116.44808 | 18183 ft | 414 kts | 117° |
| 2026-04-19 22:17 | 32.15828 | -116.41726 | 18590 ft | 418 kts | 117° |
| 2026-04-19 22:18 | 32.14572 | -116.38615 | 18977 ft | 421 kts | 117° |
| 2026-04-19 22:18 | 32.13327 | -116.35529 | 19357 ft | 424 kts | 117° |
| 2026-04-19 22:18 | 32.12055 | -116.32377 | 19753 ft | 427 kts | 117° |
| 2026-04-19 22:18 | 32.10771 | -116.29203 | 20163 ft | 430 kts | 118° |
| 2026-04-19 22:19 | 32.09479 | -116.26015 | 20553 ft | 433 kts | 117° |
| 2026-04-19 22:19 | 32.08177 | -116.22802 | 20915 ft | 436 kts | 117° |
| 2026-04-19 22:19 | 32.06866 | -116.19566 | 21269 ft | 439 kts | 117° |
| 2026-04-19 22:19 | 32.05546 | -116.16311 | 21603 ft | 441 kts | 117° |
| 2026-04-19 22:20 | 32.04216 | -116.13042 | 21940 ft | 444 kts | 117° |
| 2026-04-19 22:20 | 32.02875 | -116.09748 | 22264 ft | 447 kts | 117° |
| 2026-04-19 22:20 | 32.01526 | -116.06435 | 22578 ft | 450 kts | 117° |
| 2026-04-19 22:20 | 32.00170 | -116.03099 | 22912 ft | 452 kts | 117° |
| 2026-04-19 22:21 | 31.98806 | -115.99750 | 23256 ft | 454 kts | 117° |
| 2026-04-19 22:21 | 31.97435 | -115.96389 | 23582 ft | 456 kts | 117° |
| 2026-04-19 22:21 | 31.96060 | -115.93014 | 23866 ft | 458 kts | 117° |
| 2026-04-19 22:21 | 31.94680 | -115.89628 | 24175 ft | 459 kts | 117° |
| 2026-04-19 22:22 | 31.93298 | -115.86245 | 24518 ft | 459 kts | 117° |
| 2026-04-19 22:22 | 31.91916 | -115.82865 | 24958 ft | 456 kts | 117° |
| 2026-04-19 22:22 | 31.90495 | -115.79539 | 25397 ft | 453 kts | 122° |
| 2026-04-19 22:22 | 31.88826 | -115.76464 | 25804 ft | 451 kts | 125° |
| 2026-04-19 22:23 | 31.87102 | -115.73381 | 26239 ft | 449 kts | 125° |
| 2026-04-19 22:23 | 31.85387 | -115.70319 | 26681 ft | 448 kts | 125° |
| 2026-04-19 22:23 | 31.83673 | -115.67258 | 27087 ft | 447 kts | 125° |
| 2026-04-19 22:23 | 31.81964 | -115.64207 | 27503 ft | 446 kts | 125° |
| 2026-04-19 22:24 | 31.80256 | -115.61159 | 27918 ft | 445 kts | 125° |
| 2026-04-19 22:24 | 31.78555 | -115.58123 | 28359 ft | 444 kts | 125° |
| 2026-04-19 22:24 | 31.76862 | -115.55098 | 28798 ft | 443 kts | 126° |
| 2026-04-19 22:24 | 31.75170 | -115.52080 | 29222 ft | 441 kts | 126° |
| 2026-04-19 22:25 | 31.73485 | -115.49076 | 29661 ft | 440 kts | 126° |
| 2026-04-19 22:25 | 31.71799 | -115.46073 | 30071 ft | 439 kts | 126° |
| 2026-04-19 22:25 | 31.70115 | -115.43080 | 30425 ft | 439 kts | 126° |
| 2026-04-19 22:25 | 31.68429 | -115.40092 | 30736 ft | 439 kts | 126° |
| 2026-04-19 22:26 | 31.66740 | -115.37099 | 31030 ft | 440 kts | 126° |
| 2026-04-19 22:26 | 31.65063 | -115.34090 | 31327 ft | 442 kts | 123° |
| 2026-04-19 22:26 | 31.63680 | -115.30851 | 31595 ft | 446 kts | 114° |
| 2026-04-19 22:26 | 31.62701 | -115.27390 | 31864 ft | 449 kts | 109° |
| 2026-04-19 22:27 | 31.61779 | -115.23887 | 32142 ft | 450 kts | 109° |
| 2026-04-19 22:27 | 31.60848 | -115.20384 | 32434 ft | 451 kts | 109° |
| 2026-04-19 22:27 | 31.59920 | -115.16918 | 32734 ft | 452 kts | 110° |
| 2026-04-19 22:27 | 31.58974 | -115.13395 | 33031 ft | 453 kts | 110° |
| 2026-04-19 22:28 | 31.58025 | -115.09870 | 33309 ft | 454 kts | 110° |
| 2026-04-19 22:28 | 31.57073 | -115.06336 | 33580 ft | 455 kts | 110° |
| 2026-04-19 22:28 | 31.56118 | -115.02801 | 33858 ft | 456 kts | 110° |
| 2026-04-19 22:28 | 31.55157 | -114.99251 | 34066 ft | 457 kts | 110° |
| 2026-04-19 22:29 | 31.54194 | -114.95698 | 34287 ft | 458 kts | 110° |
| 2026-04-19 22:29 | 31.53234 | -114.92137 | 34496 ft | 458 kts | 110° |
| 2026-04-19 22:29 | 31.52273 | -114.88577 | 34700 ft | 459 kts | 110° |
| 2026-04-19 22:29 | 31.51306 | -114.84999 | 34835 ft | 460 kts | 110° |
| 2026-04-19 22:30 | 31.50336 | -114.81421 | 34865 ft | 461 kts | 110° |
| 2026-04-19 22:30 | 31.48400 | -114.74311 | 34865 ft | 461 kts | 110° |
| 2026-04-19 22:31 | 31.46446 | -114.67153 | 34866 ft | 461 kts | 110° |
| 2026-04-19 22:31 | 31.44502 | -114.59988 | 34868 ft | 462 kts | 110° |
| 2026-04-19 22:32 | 31.42545 | -114.52823 | 34870 ft | 462 kts | 110° |
| 2026-04-19 22:32 | 31.40574 | -114.45667 | 34870 ft | 463 kts | 110° |
| 2026-04-19 22:33 | 31.38569 | -114.38400 | 34870 ft | 475 kts | 110° |
| 2026-04-19 22:33 | 31.36514 | -114.30953 | 34869 ft | 483 kts | 110° |
| 2026-04-19 22:34 | 31.34452 | -114.23457 | 34867 ft | 485 kts | 110° |
| 2026-04-19 22:34 | 31.32393 | -114.16004 | 34866 ft | 485 kts | 110° |
| 2026-04-19 22:35 | 31.30306 | -114.08502 | 34871 ft | 485 kts | 110° |
| 2026-04-19 22:35 | 31.28210 | -114.00994 | 34874 ft | 486 kts | 110° |
| 2026-04-19 22:36 | 31.26110 | -113.93483 | 34871 ft | 486 kts | 110° |
| 2026-04-19 22:36 | 31.24010 | -113.85968 | 34874 ft | 486 kts | 110° |
| 2026-04-19 22:37 | 31.22259 | -113.79721 | 34879 ft | 487 kts | 110° |
| 2026-04-19 22:37 | 31.20151 | -113.72206 | 34881 ft | 487 kts | 110° |
| 2026-04-19 22:38 | 31.18030 | -113.64692 | 34885 ft | 487 kts | 110° |
| 2026-04-19 22:38 | 31.15560 | -113.55970 | 34890 ft | 487 kts | 111° |
| 2026-04-19 22:39 | 31.13777 | -113.49673 | 34908 ft | 488 kts | 110° |
| 2026-04-19 22:39 | 31.11643 | -113.42153 | 34904 ft | 488 kts | 111° |
| 2026-04-19 22:40 | 31.09518 | -113.34692 | 34903 ft | 488 kts | 111° |
| 2026-04-19 22:40 | 31.07370 | -113.27172 | 34906 ft | 489 kts | 111° |
| 2026-04-19 22:41 | 31.05214 | -113.19654 | 34896 ft | 489 kts | 111° |
| 2026-04-19 22:41 | 31.03059 | -113.12144 | 34894 ft | 489 kts | 111° |
| 2026-04-19 22:42 | 31.00902 | -113.04623 | 34892 ft | 489 kts | 111° |
| 2026-04-19 22:42 | 30.98731 | -112.97099 | 34890 ft | 490 kts | 111° |
| 2026-04-19 22:43 | 30.96560 | -112.89577 | 34890 ft | 490 kts | 111° |
| 2026-04-19 22:43 | 30.94399 | -112.82098 | 34887 ft | 490 kts | 111° |
| 2026-04-19 22:44 | 30.92215 | -112.74574 | 34887 ft | 491 kts | 111° |
| 2026-04-19 22:44 | 30.90018 | -112.67038 | 34884 ft | 491 kts | 111° |
| 2026-04-19 22:45 | 30.87813 | -112.59502 | 34883 ft | 492 kts | 111° |
| 2026-04-19 22:45 | 30.85613 | -112.51963 | 34883 ft | 492 kts | 111° |
| 2026-04-19 22:46 | 30.83409 | -112.44428 | 34876 ft | 492 kts | 111° |
| 2026-04-19 22:46 | 30.81195 | -112.36900 | 34871 ft | 492 kts | 111° |
| 2026-04-19 22:47 | 30.78968 | -112.29370 | 34863 ft | 492 kts | 112° |
| 2026-04-19 22:47 | 30.76735 | -112.21835 | 34861 ft | 493 kts | 112° |
| 2026-04-19 22:48 | 30.74522 | -112.14343 | 34857 ft | 493 kts | 111° |
| 2026-04-19 22:48 | 30.72291 | -112.06800 | 34854 ft | 493 kts | 112° |
| 2026-04-19 22:49 | 30.70045 | -111.99263 | 34849 ft | 494 kts | 112° |
| 2026-04-19 22:49 | 30.67794 | -111.91732 | 34845 ft | 494 kts | 112° |
| 2026-04-19 22:50 | 30.65539 | -111.84195 | 34841 ft | 494 kts | 112° |
| 2026-04-19 22:50 | 30.63285 | -111.76670 | 34832 ft | 492 kts | 113° |
| 2026-04-19 22:51 | 30.61035 | -111.69185 | 34835 ft | 490 kts | 113° |
| 2026-04-19 22:51 | 30.57659 | -111.57981 | 34826 ft | 490 kts | 113° |
| 2026-04-19 22:52 | 30.55407 | -111.50512 | 34830 ft | 490 kts | 113° |
| 2026-04-19 22:52 | 30.53152 | -111.43051 | 34827 ft | 490 kts | 114° |
| 2026-04-19 22:53 | 30.50897 | -111.35640 | 34830 ft | 491 kts | 114° |
| 2026-04-19 22:53 | 30.48624 | -111.28172 | 34832 ft | 491 kts | 114° |
| 2026-04-19 22:54 | 30.46350 | -111.20702 | 34838 ft | 491 kts | 114° |
| 2026-04-19 22:54 | 30.44063 | -111.13233 | 34841 ft | 491 kts | 114° |
| 2026-04-19 22:55 | 30.41773 | -111.05768 | 34850 ft | 491 kts | 114° |
| 2026-04-19 22:55 | 30.39488 | -110.98306 | 34849 ft | 492 kts | 114° |
| 2026-04-19 22:56 | 30.37191 | -110.90851 | 34854 ft | 492 kts | 114° |
| 2026-04-19 22:56 | 30.34882 | -110.83393 | 34863 ft | 491 kts | 114° |
| 2026-04-19 22:57 | 30.32583 | -110.75949 | 34865 ft | 491 kts | 114° |
| 2026-04-19 22:57 | 30.30270 | -110.68508 | 34867 ft | 492 kts | 114° |
| 2026-04-19 22:58 | 30.27969 | -110.61110 | 34872 ft | 492 kts | 114° |
| 2026-04-19 22:58 | 30.25657 | -110.53667 | 34887 ft | 492 kts | 114° |
| 2026-04-19 22:59 | 30.23336 | -110.46226 | 34882 ft | 492 kts | 114° |
| 2026-04-19 22:59 | 30.21008 | -110.38794 | 34890 ft | 492 kts | 114° |
| 2026-04-19 23:00 | 30.18679 | -110.31353 | 34893 ft | 492 kts | 114° |
| 2026-04-19 23:00 | 30.16347 | -110.23920 | 34893 ft | 492 kts | 114° |
| 2026-04-19 23:01 | 30.14003 | -110.16486 | 34891 ft | 492 kts | 114° |
| 2026-04-19 23:01 | 30.11654 | -110.09060 | 34889 ft | 492 kts | 114° |
| 2026-04-19 23:02 | 30.09314 | -110.01681 | 34883 ft | 492 kts | 115° |
| 2026-04-19 23:02 | 30.06956 | -109.94253 | 34878 ft | 493 kts | 115° |
| 2026-04-19 23:03 | 30.04596 | -109.86830 | 34885 ft | 493 kts | 115° |
| 2026-04-19 23:03 | 30.02234 | -109.79398 | 34888 ft | 493 kts | 115° |
| 2026-04-19 23:04 | 29.99870 | -109.71964 | 34883 ft | 493 kts | 115° |
| 2026-04-19 23:04 | 29.97495 | -109.64540 | 34882 ft | 493 kts | 115° |
| 2026-04-19 23:05 | 29.95106 | -109.57120 | 34871 ft | 494 kts | 115° |
| 2026-04-19 23:05 | 29.92708 | -109.49697 | 34879 ft | 495 kts | 115° |
| 2026-04-19 23:06 | 29.90296 | -109.42280 | 34876 ft | 493 kts | 115° |
| 2026-04-19 23:06 | 29.87882 | -109.34877 | 34876 ft | 493 kts | 115° |
| 2026-04-19 23:07 | 29.85457 | -109.27477 | 34880 ft | 493 kts | 115° |
| 2026-04-19 23:07 | 29.83032 | -109.20083 | 34882 ft | 494 kts | 115° |
| 2026-04-19 23:08 | 29.80629 | -109.12736 | 34881 ft | 494 kts | 115° |
| 2026-04-19 23:08 | 29.78198 | -109.05348 | 34886 ft | 493 kts | 115° |
| 2026-04-19 23:09 | 29.75757 | -108.97962 | 34894 ft | 494 kts | 115° |
| 2026-04-19 23:09 | 29.73323 | -108.90582 | 34909 ft | 494 kts | 115° |
| 2026-04-19 23:10 | 29.70881 | -108.83191 | 34920 ft | 494 kts | 115° |
| 2026-04-19 23:10 | 29.68433 | -108.75811 | 34939 ft | 494 kts | 116° |
| 2026-04-19 23:11 | 29.65981 | -108.68434 | 34953 ft | 494 kts | 116° |
| 2026-04-19 23:11 | 29.63522 | -108.61063 | 34960 ft | 494 kts | 116° |
| 2026-04-19 23:12 | 29.61055 | -108.53687 | 34968 ft | 494 kts | 116° |
| 2026-04-19 23:12 | 29.58604 | -108.46369 | 34974 ft | 494 kts | 116° |
| 2026-04-19 23:13 | 29.57372 | -108.42688 | 35078 ft | 494 kts | 116° |
| 2026-04-19 23:13 | 29.56141 | -108.39015 | 34973 ft | 491 kts | 116° |
| 2026-04-19 23:13 | 29.53687 | -108.31722 | 34971 ft | 490 kts | 117° |
| 2026-04-19 23:14 | 29.51221 | -108.24411 | 34971 ft | 491 kts | 117° |
| 2026-04-19 23:14 | 29.48757 | -108.17098 | 34965 ft | 492 kts | 117° |
| 2026-04-19 23:15 | 29.46283 | -108.09775 | 34962 ft | 492 kts | 117° |
| 2026-04-19 23:15 | 29.43797 | -108.02452 | 34961 ft | 493 kts | 117° |
| 2026-04-19 23:16 | 29.41305 | -107.95122 | 34967 ft | 494 kts | 117° |
| 2026-04-19 23:16 | 29.38816 | -107.87783 | 34975 ft | 494 kts | 117° |
| 2026-04-19 23:17 | 29.36315 | -107.80451 | 34978 ft | 494 kts | 117° |
| 2026-04-19 23:17 | 29.33799 | -107.73121 | 34979 ft | 494 kts | 117° |
| 2026-04-19 23:18 | 29.31291 | -107.65789 | 34983 ft | 495 kts | 117° |
| 2026-04-19 23:18 | 29.28773 | -107.58446 | 34985 ft | 495 kts | 117° |
| 2026-04-19 23:19 | 29.26262 | -107.51161 | 34992 ft | 495 kts | 118° |
| 2026-04-19 23:19 | 29.23735 | -107.43831 | 34998 ft | 495 kts | 117° |
| 2026-04-19 23:20 | 29.21203 | -107.36487 | 35002 ft | 496 kts | 117° |
| 2026-04-19 23:20 | 29.18670 | -107.29146 | 35008 ft | 496 kts | 118° |
| 2026-04-19 23:21 | 29.16128 | -107.21811 | 35011 ft | 496 kts | 118° |
| 2026-04-19 23:21 | 29.13576 | -107.14467 | 35010 ft | 497 kts | 118° |
| 2026-04-19 23:22 | 29.11016 | -107.07123 | 35021 ft | 497 kts | 118° |
| 2026-04-19 23:22 | 29.08457 | -106.99777 | 35024 ft | 498 kts | 118° |
| 2026-04-19 23:23 | 29.05886 | -106.92425 | 35030 ft | 498 kts | 118° |
| 2026-04-19 23:23 | 29.03303 | -106.85074 | 35030 ft | 499 kts | 118° |
| 2026-04-19 23:24 | 29.00723 | -106.77710 | 35037 ft | 500 kts | 118° |
| 2026-04-19 23:24 | 28.98153 | -106.70392 | 35044 ft | 500 kts | 118° |
| 2026-04-19 23:25 | 28.95553 | -106.63018 | 35048 ft | 501 kts | 118° |
| 2026-04-19 23:25 | 28.92946 | -106.55639 | 35050 ft | 501 kts | 118° |
| 2026-04-19 23:26 | 28.90332 | -106.48271 | 35048 ft | 501 kts | 118° |
| 2026-04-19 23:26 | 28.87708 | -106.40889 | 35056 ft | 502 kts | 118° |
| 2026-04-19 23:27 | 28.85082 | -106.33503 | 35064 ft | 502 kts | 118° |
| 2026-04-19 23:27 | 28.82459 | -106.26125 | 35114 ft | 502 kts | 118° |
| 2026-04-19 23:28 | 28.79834 | -106.18755 | 35143 ft | 501 kts | 118° |
| 2026-04-19 23:28 | 28.77203 | -106.11400 | 35183 ft | 501 kts | 118° |
| 2026-04-19 23:29 | 28.74566 | -106.04048 | 35212 ft | 500 kts | 118° |
| 2026-04-19 23:29 | 28.72377 | -105.97948 | 35214 ft | 500 kts | 118° |
| 2026-04-19 23:30 | 28.69724 | -105.90622 | 35212 ft | 500 kts | 119° |
| 2026-04-19 23:30 | 28.67020 | -105.83339 | 35195 ft | 499 kts | 120° |
| 2026-04-19 23:31 | 28.64305 | -105.76077 | 35155 ft | 498 kts | 120° |
| 2026-04-19 23:31 | 28.61586 | -105.68815 | 35116 ft | 498 kts | 120° |
| 2026-04-19 23:32 | 28.58885 | -105.61559 | 35072 ft | 498 kts | 120° |
| 2026-04-19 23:32 | 28.56196 | -105.54351 | 35045 ft | 498 kts | 120° |
| 2026-04-19 23:33 | 28.53486 | -105.47112 | 35045 ft | 497 kts | 120° |
| 2026-04-19 23:33 | 28.50774 | -105.39875 | 35039 ft | 497 kts | 120° |
| 2026-04-19 23:34 | 28.48058 | -105.32651 | 35034 ft | 496 kts | 120° |
| 2026-04-19 23:34 | 28.45342 | -105.25450 | 35036 ft | 496 kts | 120° |
| 2026-04-19 23:35 | 28.42630 | -105.18253 | 35034 ft | 495 kts | 120° |
| 2026-04-19 23:35 | 28.39916 | -105.11062 | 35035 ft | 495 kts | 120° |
| 2026-04-19 23:36 | 28.37212 | -105.03922 | 35031 ft | 495 kts | 120° |
| 2026-04-19 23:36 | 28.34482 | -104.96746 | 35033 ft | 495 kts | 120° |
| 2026-04-19 23:37 | 28.31753 | -104.89570 | 35002 ft | 495 kts | 120° |
| 2026-04-19 23:37 | 28.29024 | -104.82394 | 35012 ft | 496 kts | 121° |
| 2026-04-19 23:38 | 28.26275 | -104.75206 | 35026 ft | 497 kts | 121° |
| 2026-04-19 23:38 | 28.23519 | -104.68012 | 35032 ft | 498 kts | 121° |
| 2026-04-19 23:39 | 28.20756 | -104.60806 | 35036 ft | 499 kts | 121° |
| 2026-04-19 23:39 | 28.17991 | -104.53587 | 35045 ft | 499 kts | 121° |
| 2026-04-19 23:40 | 28.15215 | -104.46364 | 35046 ft | 500 kts | 121° |
| 2026-04-19 23:40 | 28.12433 | -104.39143 | 35051 ft | 500 kts | 121° |
| 2026-04-19 23:41 | 28.09668 | -104.31962 | 35064 ft | 501 kts | 121° |
| 2026-04-19 23:41 | 28.06873 | -104.24746 | 35072 ft | 501 kts | 121° |
| 2026-04-19 23:42 | 28.04074 | -104.17522 | 35081 ft | 501 kts | 121° |
| 2026-04-19 23:42 | 28.01275 | -104.10297 | 35086 ft | 501 kts | 121° |
| 2026-04-19 23:43 | 27.98466 | -104.03082 | 35089 ft | 501 kts | 121° |
| 2026-04-19 23:43 | 27.95654 | -103.95869 | 35094 ft | 501 kts | 121° |
| 2026-04-19 23:44 | 27.92834 | -103.88666 | 35093 ft | 501 kts | 121° |
| 2026-04-19 23:44 | 27.90017 | -103.81454 | 35095 ft | 501 kts | 121° |
| 2026-04-19 23:45 | 27.87211 | -103.74294 | 35101 ft | 501 kts | 121° |
| 2026-04-19 23:45 | 27.84370 | -103.67040 | 35098 ft | 501 kts | 121° |
| 2026-04-19 23:46 | 27.81563 | -103.59894 | 35102 ft | 501 kts | 121° |
| 2026-04-19 23:46 | 27.78727 | -103.52693 | 35100 ft | 501 kts | 121° |
| 2026-04-19 23:47 | 27.75885 | -103.45506 | 35098 ft | 501 kts | 121° |
| 2026-04-19 23:47 | 27.73038 | -103.38315 | 35117 ft | 502 kts | 121° |
| 2026-04-19 23:48 | 27.70194 | -103.31128 | 35115 ft | 502 kts | 121° |
| 2026-04-19 23:48 | 27.67350 | -103.23941 | 35114 ft | 502 kts | 122° |
| 2026-04-19 23:49 | 27.64497 | -103.16760 | 35111 ft | 502 kts | 122° |
| 2026-04-19 23:49 | 27.61642 | -103.09588 | 35110 ft | 502 kts | 122° |
| 2026-04-19 23:50 | 27.58778 | -103.02409 | 35109 ft | 502 kts | 122° |
| 2026-04-19 23:50 | 27.55912 | -102.95242 | 35122 ft | 502 kts | 122° |
| 2026-04-19 23:51 | 27.53060 | -102.88116 | 35125 ft | 502 kts | 122° |
| 2026-04-19 23:51 | 27.50180 | -102.80951 | 35142 ft | 502 kts | 122° |
| 2026-04-19 23:52 | 27.47300 | -102.73787 | 35150 ft | 502 kts | 122° |
| 2026-04-19 23:52 | 27.44421 | -102.66629 | 35161 ft | 502 kts | 122° |
| 2026-04-19 23:53 | 27.41537 | -102.59457 | 35176 ft | 502 kts | 122° |
| 2026-04-19 23:53 | 27.38646 | -102.52299 | 35193 ft | 502 kts | 122° |
| 2026-04-19 23:54 | 27.35766 | -102.45196 | 35202 ft | 502 kts | 122° |
| 2026-04-19 23:54 | 27.32872 | -102.38057 | 35213 ft | 502 kts | 122° |
| 2026-04-19 23:55 | 27.29972 | -102.30918 | 35227 ft | 502 kts | 122° |
| 2026-04-19 23:55 | 27.27073 | -102.23784 | 35234 ft | 501 kts | 122° |
| 2026-04-19 23:56 | 27.24174 | -102.16663 | 35244 ft | 501 kts | 122° |
| 2026-04-19 23:56 | 27.21262 | -102.09541 | 35257 ft | 501 kts | 122° |
| 2026-04-19 23:57 | 27.18350 | -102.02437 | 35261 ft | 500 kts | 122° |
| 2026-04-19 23:57 | 27.15446 | -101.95339 | 35258 ft | 500 kts | 122° |
| 2026-04-19 23:58 | 27.12538 | -101.88246 | 35269 ft | 500 kts | 122° |
| 2026-04-19 23:58 | 27.09617 | -101.81153 | 35273 ft | 501 kts | 122° |
| 2026-04-19 23:59 | 27.06688 | -101.74066 | 35298 ft | 500 kts | 122° |
| 2026-04-19 23:59 | 27.03770 | -101.66987 | 35300 ft | 500 kts | 122° |
| 2026-04-20 00:00 | 27.00874 | -101.59955 | 35309 ft | 500 kts | 122° |
| 2026-04-20 00:00 | 26.97955 | -101.52889 | 35313 ft | 499 kts | 122° |
| 2026-04-20 00:01 | 26.95049 | -101.45812 | 35308 ft | 501 kts | 121° |
| 2026-04-20 00:02 | 26.91372 | -101.34781 | 35306 ft | 506 kts | 116° |
| 2026-04-20 00:02 | 26.89104 | -101.27321 | 35301 ft | 505 kts | 116° |
| 2026-04-20 00:03 | 26.86733 | -101.19913 | 35298 ft | 504 kts | 117° |
| 2026-04-20 00:03 | 26.84292 | -101.12550 | 35293 ft | 504 kts | 118° |
| 2026-04-20 00:04 | 26.81845 | -101.05193 | 35283 ft | 505 kts | 118° |
| 2026-04-20 00:04 | 26.79417 | -100.97819 | 35286 ft | 505 kts | 117° |
| 2026-04-20 00:05 | 26.76999 | -100.90433 | 35277 ft | 505 kts | 118° |
| 2026-04-20 00:05 | 26.74564 | -100.83051 | 35277 ft | 506 kts | 118° |
| 2026-04-20 00:06 | 26.72115 | -100.75669 | 35282 ft | 506 kts | 118° |
| 2026-04-20 00:06 | 26.69666 | -100.68281 | 35281 ft | 507 kts | 118° |
| 2026-04-20 00:07 | 26.67219 | -100.60885 | 35281 ft | 508 kts | 118° |
| 2026-04-20 00:07 | 26.64780 | -100.53531 | 35280 ft | 508 kts | 118° |
| 2026-04-20 00:08 | 26.62313 | -100.46140 | 35281 ft | 508 kts | 118° |
| 2026-04-20 00:08 | 26.59836 | -100.38744 | 35282 ft | 508 kts | 117° |
| 2026-04-20 00:09 | 26.57362 | -100.31350 | 35283 ft | 508 kts | 117° |
| 2026-04-20 00:09 | 26.54892 | -100.23961 | 35285 ft | 508 kts | 117° |
| 2026-04-20 00:10 | 26.52277 | -100.16645 | 35284 ft | 505 kts | 121° |
| 2026-04-20 00:10 | 26.49402 | -100.09512 | 35287 ft | 503 kts | 122° |
| 2026-04-20 00:11 | 26.46468 | -100.02411 | 35287 ft | 504 kts | 121° |
| 2026-04-20 00:11 | 26.43594 | -99.95275 | 35289 ft | 504 kts | 121° |
| 2026-04-20 00:12 | 26.40785 | -99.88153 | 35288 ft | 504 kts | 120° |
| 2026-04-20 00:12 | 26.37954 | -99.80995 | 35292 ft | 504 kts | 120° |
| 2026-04-20 00:13 | 26.35097 | -99.73867 | 35289 ft | 503 kts | 120° |
| 2026-04-20 00:13 | 26.32235 | -99.66752 | 35288 ft | 503 kts | 120° |
| 2026-04-20 00:14 | 26.29374 | -99.59629 | 35280 ft | 503 kts | 120° |
| 2026-04-20 00:14 | 26.26517 | -99.52520 | 35282 ft | 503 kts | 119° |
| 2026-04-20 00:15 | 26.23664 | -99.45416 | 35284 ft | 502 kts | 119° |
| 2026-04-20 00:15 | 26.20803 | -99.38325 | 35284 ft | 502 kts | 119° |
| 2026-04-20 00:16 | 26.17943 | -99.31249 | 35276 ft | 501 kts | 119° |
| 2026-04-20 00:16 | 26.15077 | -99.24178 | 35273 ft | 501 kts | 119° |
| 2026-04-20 00:17 | 26.12235 | -99.17165 | 35270 ft | 500 kts | 118° |
| 2026-04-20 00:17 | 26.09366 | -99.10118 | 35276 ft | 500 kts | 118° |
| 2026-04-20 00:18 | 26.06500 | -99.03075 | 35264 ft | 500 kts | 118° |
| 2026-04-20 00:18 | 26.03633 | -98.96034 | 35260 ft | 500 kts | 118° |
| 2026-04-20 00:19 | 26.00761 | -98.88993 | 35255 ft | 500 kts | 119° |
| 2026-04-20 00:19 | 25.97878 | -98.81945 | 35248 ft | 501 kts | 119° |
| 2026-04-20 00:20 | 25.94994 | -98.74900 | 35243 ft | 501 kts | 119° |
| 2026-04-20 00:20 | 25.92095 | -98.67846 | 35237 ft | 502 kts | 119° |
| 2026-04-20 00:21 | 25.89195 | -98.60787 | 35232 ft | 502 kts | 119° |
| 2026-04-20 00:21 | 25.86289 | -98.53724 | 35227 ft | 503 kts | 119° |
| 2026-04-20 00:22 | 25.83869 | -98.47855 | 35225 ft | 504 kts | 119° |
| 2026-04-20 00:22 | 25.80951 | -98.40779 | 35211 ft | 504 kts | 119° |
| 2026-04-20 00:23 | 25.78023 | -98.33699 | 35206 ft | 505 kts | 119° |
| 2026-04-20 00:23 | 25.75086 | -98.26616 | 35206 ft | 505 kts | 119° |
| 2026-04-20 00:24 | 25.72147 | -98.19534 | 35202 ft | 506 kts | 119° |
| 2026-04-20 00:24 | 25.69200 | -98.12442 | 35210 ft | 507 kts | 119° |
| 2026-04-20 00:25 | 25.66245 | -98.05346 | 35203 ft | 507 kts | 120° |
| 2026-04-20 00:25 | 25.63288 | -97.98246 | 35208 ft | 508 kts | 119° |
| 2026-04-20 00:26 | 25.60338 | -97.91192 | 35196 ft | 508 kts | 120° |
| 2026-04-20 00:26 | 25.57355 | -97.84087 | 35197 ft | 509 kts | 120° |
| 2026-04-20 00:27 | 25.54376 | -97.76976 | 35191 ft | 509 kts | 119° |
| 2026-04-20 00:27 | 25.51393 | -97.69863 | 35189 ft | 509 kts | 120° |
| 2026-04-20 00:28 | 25.48403 | -97.62750 | 35192 ft | 510 kts | 120° |
| 2026-04-20 00:28 | 25.45410 | -97.55641 | 35188 ft | 510 kts | 120° |
| 2026-04-20 00:29 | 25.42406 | -97.48529 | 35186 ft | 510 kts | 120° |
| 2026-04-20 00:29 | 25.39394 | -97.41420 | 35181 ft | 510 kts | 120° |
| 2026-04-20 00:30 | 25.36388 | -97.34309 | 35179 ft | 510 kts | 120° |
| 2026-04-20 00:30 | 25.33381 | -97.27195 | 35176 ft | 511 kts | 120° |
| 2026-04-20 00:31 | 25.30386 | -97.20134 | 35175 ft | 511 kts | 120° |
| 2026-04-20 00:31 | 25.27362 | -97.13026 | 35173 ft | 511 kts | 120° |
| 2026-04-20 00:32 | 25.24341 | -97.05920 | 35165 ft | 511 kts | 120° |
| 2026-04-20 00:32 | 25.21305 | -96.98820 | 35162 ft | 512 kts | 120° |
| 2026-04-20 00:33 | 25.18259 | -96.91711 | 35161 ft | 512 kts | 120° |
| 2026-04-20 00:33 | 25.15219 | -96.84597 | 35152 ft | 512 kts | 120° |
| 2026-04-20 00:34 | 25.12173 | -96.77486 | 35158 ft | 513 kts | 120° |
| 2026-04-20 00:34 | 25.09117 | -96.70373 | 35146 ft | 513 kts | 120° |
| 2026-04-20 00:35 | 25.06078 | -96.63299 | 35150 ft | 513 kts | 120° |
| 2026-04-20 00:35 | 25.02989 | -96.56150 | 35147 ft | 513 kts | 120° |
| 2026-04-20 00:36 | 24.99931 | -96.49088 | 35141 ft | 514 kts | 120° |
| 2026-04-20 00:36 | 24.96857 | -96.41976 | 35146 ft | 514 kts | 120° |
| 2026-04-20 00:37 | 24.93785 | -96.34861 | 35145 ft | 514 kts | 120° |
| 2026-04-20 00:37 | 24.90704 | -96.27758 | 35142 ft | 514 kts | 120° |
| 2026-04-20 00:38 | 24.87615 | -96.20657 | 35145 ft | 514 kts | 120° |
| 2026-04-20 00:38 | 24.84529 | -96.13557 | 35153 ft | 514 kts | 120° |
| 2026-04-20 00:39 | 24.81430 | -96.06460 | 35149 ft | 514 kts | 120° |
| 2026-04-20 00:39 | 24.78355 | -95.99416 | 35147 ft | 514 kts | 120° |
| 2026-04-20 00:40 | 24.75266 | -95.92323 | 35149 ft | 514 kts | 120° |
| 2026-04-20 00:40 | 24.72168 | -95.85244 | 35147 ft | 513 kts | 120° |
| 2026-04-20 00:41 | 24.69063 | -95.78175 | 35146 ft | 513 kts | 120° |
| 2026-04-20 00:41 | 24.65955 | -95.71106 | 35146 ft | 513 kts | 120° |
| 2026-04-20 00:42 | 24.62851 | -95.64045 | 35147 ft | 513 kts | 120° |
| 2026-04-20 00:42 | 24.59749 | -95.56986 | 35147 ft | 513 kts | 120° |
| 2026-04-20 00:43 | 24.56634 | -95.49937 | 35143 ft | 513 kts | 121° |
| 2026-04-20 00:43 | 24.53515 | -95.42899 | 35141 ft | 513 kts | 120° |
| 2026-04-20 00:44 | 24.50421 | -95.35898 | 35139 ft | 513 kts | 120° |
| 2026-04-20 00:44 | 24.47310 | -95.28859 | 35137 ft | 513 kts | 120° |
| 2026-04-20 00:45 | 24.44184 | -95.21827 | 35138 ft | 513 kts | 120° |
| 2026-04-20 00:45 | 24.41049 | -95.14790 | 35138 ft | 513 kts | 120° |
| 2026-04-20 00:46 | 24.37925 | -95.07762 | 35133 ft | 513 kts | 120° |
| 2026-04-20 00:46 | 24.34788 | -95.00734 | 35133 ft | 513 kts | 120° |
| 2026-04-20 00:47 | 24.31645 | -94.93713 | 35132 ft | 513 kts | 120° |
| 2026-04-20 00:47 | 24.28499 | -94.86692 | 35133 ft | 513 kts | 120° |
| 2026-04-20 00:48 | 24.25377 | -94.79719 | 35132 ft | 513 kts | 120° |
| 2026-04-20 00:48 | 24.22240 | -94.72697 | 35132 ft | 513 kts | 120° |
| 2026-04-20 00:49 | 24.19087 | -94.65689 | 35132 ft | 513 kts | 120° |
| 2026-04-20 00:49 | 24.15931 | -94.58677 | 35136 ft | 513 kts | 120° |
| 2026-04-20 00:50 | 24.12940 | -94.51572 | 35136 ft | 515 kts | 116° |
| 2026-04-20 00:50 | 24.10298 | -94.44273 | 35133 ft | 516 kts | 114° |
| 2026-04-20 00:51 | 24.07704 | -94.36941 | 35136 ft | 516 kts | 115° |
| 2026-04-20 00:51 | 24.05011 | -94.29668 | 35134 ft | 515 kts | 116° |
| 2026-04-20 00:52 | 24.02262 | -94.22430 | 35131 ft | 515 kts | 116° |
| 2026-04-20 00:52 | 23.99514 | -94.15193 | 35134 ft | 515 kts | 116° |
| 2026-04-20 00:53 | 23.96785 | -94.07942 | 35135 ft | 516 kts | 115° |
| 2026-04-20 00:53 | 23.94060 | -94.00690 | 35134 ft | 516 kts | 116° |
| 2026-04-20 00:54 | 23.91319 | -93.93446 | 35134 ft | 516 kts | 116° |
| 2026-04-20 00:54 | 23.88594 | -93.86254 | 35132 ft | 516 kts | 115° |
| 2026-04-20 00:55 | 23.85851 | -93.79011 | 35130 ft | 516 kts | 116° |
| 2026-04-20 00:55 | 23.83104 | -93.71767 | 35132 ft | 516 kts | 116° |
| 2026-04-20 00:56 | 23.80360 | -93.64531 | 35134 ft | 516 kts | 115° |
| 2026-04-20 00:56 | 23.77615 | -93.57297 | 35133 ft | 516 kts | 115° |
| 2026-04-20 00:57 | 23.74865 | -93.50068 | 35131 ft | 516 kts | 115° |
| 2026-04-20 00:57 | 23.72106 | -93.42841 | 35129 ft | 516 kts | 116° |
| 2026-04-20 00:58 | 23.69343 | -93.35623 | 35126 ft | 516 kts | 116° |
| 2026-04-20 00:58 | 23.66576 | -93.28407 | 35128 ft | 515 kts | 116° |
| 2026-04-20 00:59 | 23.63809 | -93.21199 | 35130 ft | 515 kts | 115° |
| 2026-04-20 00:59 | 23.61051 | -93.13986 | 35131 ft | 515 kts | 115° |
| 2026-04-20 01:00 | 23.58304 | -93.06825 | 35131 ft | 515 kts | 115° |
| 2026-04-20 01:00 | 23.55527 | -92.99632 | 35131 ft | 515 kts | 116° |
| 2026-04-20 01:01 | 23.52736 | -92.92435 | 35129 ft | 515 kts | 116° |
| 2026-04-20 01:01 | 23.49961 | -92.85251 | 35131 ft | 515 kts | 115° |
| 2026-04-20 01:02 | 23.47190 | -92.78061 | 35130 ft | 514 kts | 115° |
| 2026-04-20 01:02 | 23.44408 | -92.70894 | 35128 ft | 514 kts | 116° |
| 2026-04-20 01:03 | 23.41621 | -92.63727 | 35129 ft | 514 kts | 115° |
| 2026-04-20 01:03 | 23.38846 | -92.56572 | 35123 ft | 513 kts | 115° |
| 2026-04-20 01:04 | 23.36065 | -92.49414 | 35125 ft | 513 kts | 116° |
| 2026-04-20 01:04 | 23.33283 | -92.42319 | 35124 ft | 513 kts | 116° |
| 2026-04-20 01:05 | 23.30482 | -92.35177 | 35115 ft | 513 kts | 116° |
| 2026-04-20 01:05 | 23.27684 | -92.28033 | 35109 ft | 513 kts | 116° |
| 2026-04-20 01:06 | 23.24890 | -92.20884 | 35115 ft | 514 kts | 116° |
| 2026-04-20 01:06 | 23.22090 | -92.13737 | 35113 ft | 514 kts | 116° |
| 2026-04-20 01:07 | 23.19282 | -92.06598 | 35114 ft | 514 kts | 116° |
| 2026-04-20 01:07 | 23.16465 | -91.99462 | 35115 ft | 514 kts | 116° |
| 2026-04-20 01:08 | 23.13648 | -91.92328 | 35109 ft | 513 kts | 116° |
| 2026-04-20 01:08 | 23.10831 | -91.85202 | 35108 ft | 513 kts | 116° |
| 2026-04-20 01:09 | 23.08038 | -91.78123 | 35111 ft | 513 kts | 116° |
| 2026-04-20 01:09 | 23.05220 | -91.71003 | 35106 ft | 513 kts | 116° |
| 2026-04-20 01:10 | 23.02397 | -91.63895 | 35103 ft | 513 kts | 116° |
| 2026-04-20 01:10 | 22.98142 | -91.53227 | 35105 ft | 513 kts | 116° |
| 2026-04-20 01:11 | 22.95310 | -91.46127 | 35107 ft | 513 kts | 116° |
| 2026-04-20 01:11 | 22.92472 | -91.39026 | 35102 ft | 513 kts | 116° |
| 2026-04-20 01:12 | 22.89635 | -91.31927 | 35102 ft | 513 kts | 116° |
| 2026-04-20 01:12 | 22.86796 | -91.24832 | 35098 ft | 513 kts | 116° |
| 2026-04-20 01:13 | 22.83953 | -91.17740 | 35101 ft | 513 kts | 116° |
| 2026-04-20 01:13 | 22.81106 | -91.10658 | 35101 ft | 513 kts | 116° |
| 2026-04-20 01:14 | 22.78256 | -91.03571 | 35101 ft | 512 kts | 116° |
| 2026-04-20 01:14 | 22.75395 | -90.96496 | 35099 ft | 512 kts | 116° |
| 2026-04-20 01:15 | 22.73024 | -90.90624 | 35097 ft | 512 kts | 116° |
| 2026-04-20 01:15 | 22.70177 | -90.83554 | 35096 ft | 512 kts | 116° |
| 2026-04-20 01:16 | 22.67316 | -90.76497 | 35093 ft | 512 kts | 116° |
| 2026-04-20 01:16 | 22.63989 | -90.68305 | 35096 ft | 511 kts | 116° |
| 2026-04-20 01:17 | 22.61586 | -90.62406 | 35092 ft | 511 kts | 116° |
| 2026-04-20 01:17 | 22.58741 | -90.55405 | 35090 ft | 511 kts | 116° |
| 2026-04-20 01:18 | 22.55883 | -90.48366 | 35094 ft | 511 kts | 116° |
| 2026-04-20 01:18 | 22.53030 | -90.41327 | 35089 ft | 512 kts | 113° |
| 2026-04-20 01:19 | 22.51296 | -90.33861 | 35089 ft | 513 kts | 99° |
| 2026-04-20 01:19 | 22.50164 | -90.26234 | 35087 ft | 513 kts | 99° |
| 2026-04-20 01:20 | 22.49003 | -90.18609 | 35090 ft | 513 kts | 100° |
| 2026-04-20 01:20 | 22.47843 | -90.10994 | 35086 ft | 513 kts | 99° |
| 2026-04-20 01:21 | 22.46689 | -90.03375 | 35090 ft | 513 kts | 100° |
| 2026-04-20 01:21 | 22.45528 | -89.95766 | 35090 ft | 513 kts | 100° |
| 2026-04-20 01:22 | 22.44361 | -89.88151 | 35092 ft | 513 kts | 100° |
| 2026-04-20 01:22 | 22.43195 | -89.80599 | 35090 ft | 513 kts | 100° |
| 2026-04-20 01:23 | 22.42022 | -89.72992 | 35090 ft | 513 kts | 100° |
| 2026-04-20 01:23 | 22.40460 | -89.65501 | 35082 ft | 509 kts | 116° |
| 2026-04-20 01:24 | 22.37283 | -89.58696 | 35085 ft | 507 kts | 120° |
| 2026-04-20 01:24 | 22.34016 | -89.51930 | 35080 ft | 508 kts | 120° |
| 2026-04-20 01:25 | 22.30779 | -89.45240 | 35078 ft | 492 kts | 120° |
| 2026-04-20 01:25 | 22.27642 | -89.38736 | 35082 ft | 486 kts | 120° |
| 2026-04-20 01:26 | 22.24534 | -89.32265 | 35076 ft | 485 kts | 120° |
| 2026-04-20 01:26 | 22.21406 | -89.25821 | 35078 ft | 485 kts | 120° |
| 2026-04-20 01:27 | 22.18278 | -89.19376 | 35074 ft | 484 kts | 120° |
| 2026-04-20 01:27 | 22.15155 | -89.12930 | 35078 ft | 484 kts | 120° |
| 2026-04-20 01:28 | 22.12042 | -89.06493 | 35082 ft | 484 kts | 120° |
| 2026-04-20 01:28 | 22.08913 | -89.00065 | 35087 ft | 484 kts | 120° |
| 2026-04-20 01:29 | 22.05774 | -88.93640 | 35082 ft | 484 kts | 120° |
| 2026-04-20 01:29 | 22.02642 | -88.87224 | 35086 ft | 484 kts | 120° |
| 2026-04-20 01:30 | 21.99514 | -88.80812 | 35094 ft | 483 kts | 120° |
| 2026-04-20 01:30 | 21.96401 | -88.74443 | 35089 ft | 483 kts | 120° |
| 2026-04-20 01:31 | 21.93263 | -88.68040 | 35091 ft | 483 kts | 120° |
| 2026-04-20 01:31 | 21.90131 | -88.61647 | 35085 ft | 483 kts | 120° |
| 2026-04-20 01:32 | 21.86996 | -88.55252 | 35086 ft | 482 kts | 120° |
| 2026-04-20 01:32 | 21.83862 | -88.48876 | 35089 ft | 482 kts | 120° |
| 2026-04-20 01:33 | 21.80730 | -88.42502 | 35085 ft | 482 kts | 120° |
| 2026-04-20 01:33 | 21.77595 | -88.36135 | 35083 ft | 481 kts | 120° |
| 2026-04-20 01:34 | 21.74459 | -88.29779 | 35091 ft | 481 kts | 120° |
| 2026-04-20 01:34 | 21.71347 | -88.23471 | 35088 ft | 480 kts | 120° |
| 2026-04-20 01:35 | 21.68216 | -88.17130 | 35083 ft | 480 kts | 120° |
| 2026-04-20 01:35 | 21.65081 | -88.10801 | 35084 ft | 479 kts | 120° |
| 2026-04-20 01:36 | 21.61968 | -88.04516 | 34662 ft | 472 kts | 120° |
| 2026-04-20 01:36 | 21.60434 | -88.01421 | 34284 ft | 468 kts | 120° |
| 2026-04-20 01:36 | 21.58909 | -87.98344 | 33869 ft | 465 kts | 120° |
| 2026-04-20 01:37 | 21.57397 | -87.95292 | 33423 ft | 461 kts | 120° |
| 2026-04-20 01:37 | 21.55895 | -87.92260 | 32998 ft | 458 kts | 120° |
| 2026-04-20 01:37 | 21.54404 | -87.89252 | 32578 ft | 455 kts | 120° |
| 2026-04-20 01:37 | 21.52925 | -87.86265 | 32170 ft | 451 kts | 120° |
| 2026-04-20 01:38 | 21.51451 | -87.83303 | 31768 ft | 448 kts | 120° |
| 2026-04-20 01:38 | 21.49984 | -87.80363 | 31376 ft | 445 kts | 120° |
| 2026-04-20 01:38 | 21.48528 | -87.77443 | 30998 ft | 442 kts | 120° |
| 2026-04-20 01:38 | 21.47081 | -87.74542 | 30625 ft | 439 kts | 120° |
| 2026-04-20 01:39 | 21.45645 | -87.71668 | 30254 ft | 436 kts | 120° |
| 2026-04-20 01:39 | 21.44212 | -87.68806 | 29851 ft | 433 kts | 120° |
| 2026-04-20 01:39 | 21.42793 | -87.65970 | 29452 ft | 430 kts | 120° |
| 2026-04-20 01:39 | 21.41384 | -87.63152 | 29060 ft | 427 kts | 120° |
| 2026-04-20 01:40 | 21.39986 | -87.60359 | 28683 ft | 423 kts | 120° |
| 2026-04-20 01:40 | 21.38602 | -87.57587 | 28316 ft | 420 kts | 120° |
| 2026-04-20 01:40 | 21.37227 | -87.54831 | 27945 ft | 417 kts | 120° |
| 2026-04-20 01:40 | 21.35859 | -87.52096 | 27575 ft | 414 kts | 120° |
| 2026-04-20 01:41 | 21.34499 | -87.49381 | 27207 ft | 411 kts | 120° |
| 2026-04-20 01:41 | 21.33151 | -87.46693 | 26839 ft | 408 kts | 120° |
| 2026-04-20 01:41 | 21.31829 | -87.44057 | 26477 ft | 405 kts | 120° |
| 2026-04-20 01:41 | 21.30501 | -87.41401 | 26113 ft | 403 kts | 119° |
| 2026-04-20 01:42 | 21.29181 | -87.38767 | 25757 ft | 400 kts | 119° |
| 2026-04-20 01:42 | 21.27867 | -87.36151 | 25397 ft | 397 kts | 119° |
| 2026-04-20 01:42 | 21.26562 | -87.33555 | 25038 ft | 394 kts | 119° |
| 2026-04-20 01:42 | 21.25267 | -87.30985 | 24681 ft | 391 kts | 119° |
| 2026-04-20 01:43 | 21.23979 | -87.28425 | 24327 ft | 388 kts | 119° |
| 2026-04-20 01:43 | 21.22704 | -87.25887 | 23979 ft | 386 kts | 119° |
| 2026-04-20 01:43 | 21.21436 | -87.23361 | 23638 ft | 383 kts | 119° |
| 2026-04-20 01:43 | 21.20175 | -87.20854 | 23235 ft | 380 kts | 119° |
| 2026-04-20 01:44 | 21.18922 | -87.18369 | 22854 ft | 377 kts | 119° |
| 2026-04-20 01:44 | 21.17681 | -87.15909 | 22477 ft | 374 kts | 119° |
| 2026-04-20 01:44 | 21.16447 | -87.13469 | 22109 ft | 371 kts | 119° |
| 2026-04-20 01:44 | 21.15227 | -87.11053 | 21742 ft | 368 kts | 118° |
| 2026-04-20 01:45 | 21.14016 | -87.08649 | 21369 ft | 365 kts | 118° |
| 2026-04-20 01:45 | 21.12817 | -87.06267 | 21013 ft | 362 kts | 118° |
| 2026-04-20 01:45 | 21.11642 | -87.03936 | 20661 ft | 359 kts | 118° |
| 2026-04-20 01:45 | 21.10461 | -87.01594 | 20306 ft | 356 kts | 118° |
| 2026-04-20 01:46 | 21.09286 | -86.99264 | 19953 ft | 354 kts | 118° |
| 2026-04-20 01:46 | 21.08117 | -86.96952 | 19607 ft | 352 kts | 119° |
| 2026-04-20 01:46 | 21.06955 | -86.94659 | 19279 ft | 349 kts | 118° |
| 2026-04-20 01:46 | 21.05801 | -86.92382 | 19023 ft | 344 kts | 118° |
| 2026-04-20 01:47 | 21.04675 | -86.90164 | 18911 ft | 334 kts | 118° |
| 2026-04-20 01:47 | 21.03580 | -86.88003 | 18795 ft | 326 kts | 118° |
| 2026-04-20 01:47 | 21.02513 | -86.85903 | 18660 ft | 318 kts | 119° |
| 2026-04-20 01:47 | 21.01401 | -86.83865 | 18438 ft | 315 kts | 121° |
| 2026-04-20 01:48 | 21.00246 | -86.81887 | 18170 ft | 312 kts | 122° |
| 2026-04-20 01:48 | 20.99078 | -86.79939 | 17873 ft | 310 kts | 123° |
| 2026-04-20 01:48 | 20.97913 | -86.78006 | 17574 ft | 308 kts | 122° |
| 2026-04-20 01:48 | 20.96751 | -86.76085 | 17280 ft | 306 kts | 126° |
| 2026-04-20 01:49 | 20.95262 | -86.74486 | 16985 ft | 304 kts | 146° |
| 2026-04-20 01:49 | 20.93355 | -86.73553 | 16683 ft | 302 kts | 167° |
| 2026-04-20 01:49 | 20.91277 | -86.73399 | 16375 ft | 300 kts | 187° |
| 2026-04-20 01:49 | 20.89287 | -86.74032 | 16075 ft | 299 kts | 208° |
| 2026-04-20 01:50 | 20.87639 | -86.75361 | 15767 ft | 298 kts | 229° |
| 2026-04-20 01:50 | 20.86539 | -86.77183 | 15466 ft | 297 kts | 249° |
| 2026-04-20 01:50 | 20.86085 | -86.79319 | 15163 ft | 295 kts | 269° |
| 2026-04-20 01:50 | 20.86338 | -86.81479 | 14861 ft | 294 kts | 289° |
| 2026-04-20 01:51 | 20.87251 | -86.83412 | 14564 ft | 292 kts | 308° |
| 2026-04-20 01:51 | 20.88709 | -86.84892 | 14284 ft | 289 kts | 328° |
| 2026-04-20 01:51 | 20.90536 | -86.85748 | 13998 ft | 287 kts | 348° |
| 2026-04-20 01:51 | 20.92507 | -86.85899 | 13691 ft | 284 kts | 7° |
| 2026-04-20 01:52 | 20.94462 | -86.85590 | 13377 ft | 284 kts | 11° |
| 2026-04-20 01:52 | 20.96387 | -86.85164 | 13085 ft | 282 kts | 13° |
| 2026-04-20 01:52 | 20.98313 | -86.84780 | 12801 ft | 281 kts | 4° |
| 2026-04-20 01:52 | 21.00242 | -86.84974 | 12520 ft | 279 kts | 344° |
| 2026-04-20 01:53 | 21.01990 | -86.85853 | 12236 ft | 279 kts | 324° |
| 2026-04-20 01:53 | 21.03356 | -86.87313 | 11950 ft | 279 kts | 302° |
| 2026-04-20 01:53 | 21.03892 | -86.89273 | 11667 ft | 279 kts | 268° |
| 2026-04-20 01:53 | 21.03317 | -86.91226 | 11369 ft | 279 kts | 234° |
| 2026-04-20 01:54 | 21.01828 | -86.92514 | 11068 ft | 279 kts | 202° |
| 2026-04-20 01:54 | 20.99955 | -86.93046 | 10746 ft | 280 kts | 185° |
| 2026-04-20 01:54 | 20.98020 | -86.92996 | 10448 ft | 278 kts | 167° |
| 2026-04-20 01:54 | 20.96240 | -86.92243 | 10179 ft | 275 kts | 144° |
| 2026-04-20 01:55 | 20.94916 | -86.90812 | 9897 ft | 271 kts | 122° |
| 2026-04-20 01:55 | 20.93868 | -86.89133 | 9585 ft | 271 kts | 121° |
| 2026-04-20 01:55 | 20.92863 | -86.87434 | 9286 ft | 270 kts | 120° |
| 2026-04-20 01:55 | 20.91876 | -86.85734 | 9006 ft | 268 kts | 120° |
| 2026-04-20 01:56 | 20.90896 | -86.84043 | 8731 ft | 267 kts | 119° |
| 2026-04-20 01:56 | 20.90225 | -86.82220 | 8457 ft | 262 kts | 96° |
| 2026-04-20 01:56 | 20.90279 | -86.80307 | 8190 ft | 257 kts | 73° |
| 2026-04-20 01:56 | 20.91009 | -86.78597 | 7921 ft | 253 kts | 52° |
| 2026-04-20 01:57 | 20.92267 | -86.77349 | 7646 ft | 250 kts | 30° |
| 2026-04-20 01:57 | 20.93881 | -86.76703 | 7358 ft | 249 kts | 8° |
| 2026-04-20 01:57 | 20.95601 | -86.76765 | 7086 ft | 250 kts | 347° |
| 2026-04-20 01:57 | 20.97184 | -86.77520 | 6804 ft | 251 kts | 326° |
| 2026-04-20 01:58 | 20.98401 | -86.78862 | 6542 ft | 254 kts | 308° |
| 2026-04-20 01:58 | 20.99400 | -86.80424 | 6237 ft | 254 kts | 305° |
| 2026-04-20 01:58 | 21.00341 | -86.82024 | 5940 ft | 254 kts | 304° |
| 2026-04-20 01:58 | 21.01264 | -86.83633 | 5661 ft | 253 kts | 303° |
| 2026-04-20 01:59 | 21.02184 | -86.85237 | 5363 ft | 252 kts | 304° |
| 2026-04-20 01:59 | 21.02966 | -86.86917 | 5078 ft | 254 kts | 286° |
| 2026-04-20 01:59 | 21.03002 | -86.88805 | 4779 ft | 257 kts | 257° |
| 2026-04-20 01:59 | 21.02207 | -86.90499 | 4477 ft | 258 kts | 227° |
| 2026-04-20 02:00 | 21.00755 | -86.91581 | 4150 ft | 256 kts | 198° |
| 2026-04-20 02:00 | 20.99017 | -86.91809 | 3849 ft | 251 kts | 169° |
| 2026-04-20 02:00 | 20.97412 | -86.91178 | 3538 ft | 245 kts | 142° |
| 2026-04-20 02:00 | 20.96255 | -86.89891 | 3218 ft | 240 kts | 122° |
| 2026-04-20 02:01 | 20.95340 | -86.88408 | 3058 ft | 238 kts | 119° |
| 2026-04-20 02:01 | 20.94459 | -86.86901 | 3063 ft | 240 kts | 119° |
| 2026-04-20 02:01 | 20.93581 | -86.85384 | 3065 ft | 240 kts | 119° |
| 2026-04-20 02:01 | 20.92713 | -86.83890 | 3062 ft | 239 kts | 119° |
| 2026-04-20 02:02 | 20.92094 | -86.82263 | 3064 ft | 235 kts | 96° |
| 2026-04-20 02:02 | 20.92174 | -86.80548 | 3066 ft | 231 kts | 72° |
| 2026-04-20 02:02 | 20.92922 | -86.79048 | 3063 ft | 230 kts | 48° |
| 2026-04-20 02:02 | 20.94198 | -86.78040 | 3060 ft | 230 kts | 23° |
| 2026-04-20 02:03 | 20.95761 | -86.77709 | 3059 ft | 232 kts | 359° |
| 2026-04-20 02:03 | 20.97328 | -86.78129 | 3054 ft | 237 kts | 335° |
| 2026-04-20 02:03 | 20.98598 | -86.79259 | 3077 ft | 242 kts | 309° |
| 2026-04-20 02:03 | 20.99551 | -86.80752 | 3073 ft | 243 kts | 306° |
| 2026-04-20 02:04 | 21.00460 | -86.82285 | 3073 ft | 244 kts | 304° |
| 2026-04-20 02:04 | 21.01355 | -86.83829 | 3072 ft | 245 kts | 304° |
| 2026-04-20 02:04 | 21.02253 | -86.85380 | 3072 ft | 245 kts | 304° |
| 2026-04-20 02:04 | 21.02989 | -86.87025 | 3065 ft | 248 kts | 284° |
| 2026-04-20 02:05 | 21.02932 | -86.88868 | 3063 ft | 252 kts | 253° |
| 2026-04-20 02:05 | 21.02049 | -86.90441 | 3069 ft | 254 kts | 223° |
| 2026-04-20 02:05 | 21.00536 | -86.91383 | 3085 ft | 253 kts | 192° |
| 2026-04-20 02:05 | 20.98812 | -86.91410 | 3095 ft | 248 kts | 162° |
| 2026-04-20 02:06 | 20.97321 | -86.90573 | 3092 ft | 241 kts | 134° |
| 2026-04-20 02:06 | 20.96302 | -86.89176 | 3092 ft | 238 kts | 120° |
| 2026-04-20 02:06 | 20.95409 | -86.87688 | 3092 ft | 238 kts | 119° |
| 2026-04-20 02:06 | 20.94531 | -86.86186 | 3088 ft | 238 kts | 119° |
| 2026-04-20 02:07 | 20.93656 | -86.84684 | 3085 ft | 238 kts | 119° |
| 2026-04-20 02:07 | 20.92813 | -86.83166 | 3088 ft | 237 kts | 110° |
| 2026-04-20 02:07 | 20.92515 | -86.81467 | 3086 ft | 232 kts | 84° |
| 2026-04-20 02:07 | 20.92966 | -86.79838 | 3086 ft | 229 kts | 58° |
| 2026-04-20 02:08 | 20.94043 | -86.78608 | 3084 ft | 228 kts | 33° |
| 2026-04-20 02:08 | 20.95527 | -86.78021 | 3083 ft | 230 kts | 8° |
| 2026-04-20 02:08 | 20.96588 | -86.78056 | 3078 ft | 233 kts | 351° |
| 2026-04-20 02:08 | 20.98073 | -86.78762 | 3076 ft | 238 kts | 324° |
| 2026-04-20 02:09 | 20.99150 | -86.80120 | 3075 ft | 242 kts | 306° |
| 2026-04-20 02:09 | 21.00065 | -86.81637 | 3070 ft | 243 kts | 305° |
| 2026-04-20 02:09 | 21.00965 | -86.83174 | 3069 ft | 244 kts | 304° |
| 2026-04-20 02:09 | 21.02156 | -86.85223 | 3068 ft | 245 kts | 304° |
| 2026-04-20 02:10 | 21.02930 | -86.86846 | 3070 ft | 248 kts | 287° |
| 2026-04-20 02:10 | 21.03050 | -86.88084 | 3069 ft | 251 kts | 266° |
| 2026-04-20 02:10 | 21.02498 | -86.89840 | 3065 ft | 252 kts | 235° |
| 2026-04-20 02:10 | 21.01205 | -86.91085 | 3083 ft | 254 kts | 205° |
| 2026-04-20 02:11 | 20.99513 | -86.91494 | 3092 ft | 250 kts | 174° |
| 2026-04-20 02:11 | 20.97898 | -86.91002 | 3090 ft | 243 kts | 146° |
| 2026-04-20 02:11 | 20.96699 | -86.89786 | 3092 ft | 238 kts | 121° |
| 2026-04-20 02:11 | 20.95790 | -86.88308 | 3092 ft | 238 kts | 119° |
| 2026-04-20 02:12 | 20.94908 | -86.86810 | 3092 ft | 238 kts | 119° |
| 2026-04-20 02:12 | 20.94034 | -86.85306 | 3089 ft | 238 kts | 119° |
| 2026-04-20 02:12 | 20.93161 | -86.83798 | 3091 ft | 238 kts | 118° |
| 2026-04-20 02:12 | 20.92575 | -86.82172 | 3083 ft | 233 kts | 95° |
| 2026-04-20 02:13 | 20.92726 | -86.80471 | 3084 ft | 230 kts | 69° |
| 2026-04-20 02:13 | 20.93568 | -86.79044 | 3083 ft | 228 kts | 43° |
| 2026-04-20 02:13 | 20.94915 | -86.78174 | 3081 ft | 229 kts | 18° |
| 2026-04-20 02:13 | 20.96499 | -86.78043 | 3077 ft | 232 kts | 352° |
| 2026-04-20 02:14 | 20.97999 | -86.78704 | 3075 ft | 238 kts | 326° |
| 2026-04-20 02:14 | 20.99100 | -86.80035 | 3072 ft | 242 kts | 306° |
| 2026-04-20 02:14 | 21.00025 | -86.81566 | 3329 ft | 248 kts | 304° |
| 2026-04-20 02:14 | 21.00965 | -86.83147 | 3953 ft | 261 kts | 308° |
| 2026-04-20 02:15 | 21.02323 | -86.84443 | 4028 ft | 265 kts | 335° |
| 2026-04-20 02:15 | 21.04063 | -86.84907 | 4034 ft | 260 kts | 3° |
| 2026-04-20 02:15 | 21.05802 | -86.84480 | 4036 ft | 257 kts | 25° |
| 2026-04-20 02:15 | 21.07436 | -86.83682 | 4037 ft | 259 kts | 26° |
| 2026-04-20 02:16 | 21.09083 | -86.82887 | 4039 ft | 260 kts | 21° |
| 2026-04-20 02:16 | 21.10867 | -86.82633 | 4033 ft | 263 kts | 354° |
| 2026-04-20 02:16 | 21.12581 | -86.83303 | 4040 ft | 267 kts | 327° |
| 2026-04-20 02:16 | 21.13846 | -86.84757 | 4038 ft | 270 kts | 306° |
| 2026-04-20 02:17 | 21.14891 | -86.86432 | 4037 ft | 271 kts | 306° |
| 2026-04-20 02:17 | 21.15938 | -86.88102 | 4035 ft | 270 kts | 306° |
| 2026-04-20 02:17 | 21.16992 | -86.89775 | 4034 ft | 270 kts | 306° |
| 2026-04-20 02:17 | 21.18042 | -86.91453 | 3734 ft | 272 kts | 306° |
| 2026-04-20 02:18 | 21.19089 | -86.93137 | 3258 ft | 270 kts | 306° |
| 2026-04-20 02:18 | 21.20107 | -86.94781 | 3037 ft | 256 kts | 306° |
| 2026-04-20 02:18 | 21.21065 | -86.96331 | 3027 ft | 242 kts | 306° |
| 2026-04-20 02:18 | 21.21967 | -86.97789 | 3022 ft | 228 kts | 306° |
| 2026-04-20 02:19 | 21.22835 | -86.99188 | 3027 ft | 220 kts | 306° |
| 2026-04-20 02:19 | 21.23663 | -87.00519 | 3023 ft | 211 kts | 306° |
| 2026-04-20 02:19 | 21.24199 | -87.01965 | 3024 ft | 212 kts | 278° |
| 2026-04-20 02:19 | 21.24009 | -87.03518 | 3032 ft | 214 kts | 246° |
| 2026-04-20 02:20 | 21.23103 | -87.04755 | 3025 ft | 213 kts | 213° |
| 2026-04-20 02:20 | 21.21762 | -87.05331 | 3030 ft | 211 kts | 189° |
| 2026-04-20 02:20 | 21.20321 | -87.05652 | 3032 ft | 212 kts | 189° |
| 2026-04-20 02:20 | 21.18878 | -87.05977 | 3027 ft | 211 kts | 186° |
| 2026-04-20 02:21 | 21.16213 | -87.05147 | 3029 ft | 201 kts | 133° |
| 2026-04-20 02:21 | 21.15372 | -87.03981 | 3035 ft | 198 kts | 120° |
| 2026-04-20 02:21 | 21.14606 | -87.02755 | 3034 ft | 197 kts | 120° |
| 2026-04-20 02:22 | 21.13867 | -87.01577 | 2893 ft | 186 kts | 120° |
| 2026-04-20 02:22 | 21.13156 | -87.00439 | 2677 ft | 181 kts | 120° |
| 2026-04-20 02:22 | 21.12465 | -86.99332 | 2453 ft | 177 kts | 119° |
| 2026-04-20 02:22 | 21.11793 | -86.98257 | 2223 ft | 169 kts | 119° |
| 2026-04-20 02:23 | 21.11163 | -86.97250 | 2022 ft | 156 kts | 118° |
| 2026-04-20 02:23 | 21.10572 | -86.96304 | 1829 ft | 148 kts | 117° |
| 2026-04-20 02:23 | 21.10012 | -86.95406 | 1635 ft | 143 kts | 117° |
| 2026-04-20 02:23 | 21.09464 | -86.94528 | 1443 ft | 141 kts | 118° |
| 2026-04-20 02:24 | 21.08919 | -86.93654 | 1267 ft | 140 kts | 118° |
| 2026-04-20 02:24 | 21.08378 | -86.92788 | 1081 ft | 140 kts | 118° |
| 2026-04-20 02:24 | 21.07836 | -86.91920 | 900 ft | 140 kts | 119° |
| 2026-04-20 02:24 | 21.07296 | -86.91053 | 677 ft | 143 kts | 120° |
| 2026-04-20 02:25 | 21.06739 | -86.90168 | 545 ft | 145 kts | 121° |
| 2026-04-20 02:25 | 21.06180 | -86.89263 | 303 ft | 145 kts | 120° |
| 2026-04-20 02:25 | 21.05621 | -86.88379 | 135 ft | 143 kts | 121° |
| 2026-04-20 02:25 | 21.05078 | -86.87501 | 45 ft | 134 kts | 121° |
| 2026-04-20 02:26 | 21.04538 | -86.86655 | 308 ft | 146 kts | 122° |
| 2026-04-20 02:26 | 21.03944 | -86.85709 | 874 ft | 161 kts | 120° |
| 2026-04-20 02:26 | 21.03298 | -86.84713 | 1693 ft | 165 kts | 120° |
| 2026-04-20 02:26 | 21.02619 | -86.83693 | 2089 ft | 177 kts | 120° |
| 2026-04-20 02:27 | 21.01893 | -86.82564 | 2387 ft | 188 kts | 118° |
| 2026-04-20 02:27 | 21.01484 | -86.81201 | 2643 ft | 203 kts | 86° |
| 2026-04-20 02:27 | 21.01908 | -86.79762 | 2993 ft | 211 kts | 55° |
| 2026-04-20 02:27 | 21.02841 | -86.78431 | 3042 ft | 239 kts | 57° |
| 2026-04-20 02:28 | 21.03683 | -86.76826 | 3042 ft | 251 kts | 62° |
| 2026-04-20 02:28 | 21.04493 | -86.75162 | 3036 ft | 253 kts | 62° |
| 2026-04-20 02:28 | 21.05302 | -86.73484 | 3035 ft | 254 kts | 62° |
| 2026-04-20 02:28 | 21.06234 | -86.71886 | 3030 ft | 253 kts | 46° |
| 2026-04-20 02:29 | 21.07606 | -86.70754 | 3029 ft | 254 kts | 30° |
| 2026-04-20 02:29 | 21.09280 | -86.70157 | 3035 ft | 256 kts | 7° |
| 2026-04-20 02:29 | 21.11044 | -86.70390 | 3028 ft | 260 kts | 341° |
| 2026-04-20 02:29 | 21.12551 | -86.71469 | 3037 ft | 266 kts | 315° |
| 2026-04-20 02:30 | 21.13449 | -86.73211 | 3031 ft | 273 kts | 286° |
| 2026-04-20 02:30 | 21.13483 | -86.75234 | 3031 ft | 276 kts | 258° |
| 2026-04-20 02:30 | 21.12967 | -86.77228 | 3031 ft | 278 kts | 255° |
| 2026-04-20 02:30 | 21.12428 | -86.79217 | 3039 ft | 278 kts | 255° |
| 2026-04-20 02:31 | 21.12209 | -86.81250 | 3037 ft | 275 kts | 278° |
| 2026-04-20 02:31 | 21.12823 | -86.83148 | 3036 ft | 270 kts | 304° |
| 2026-04-20 02:31 | 21.13860 | -86.84824 | 3036 ft | 270 kts | 307° |
| 2026-04-20 02:31 | 21.14906 | -86.86494 | 3037 ft | 270 kts | 306° |
| 2026-04-20 02:32 | 21.15951 | -86.88159 | 3040 ft | 269 kts | 306° |
| 2026-04-20 02:32 | 21.16998 | -86.89830 | 3031 ft | 270 kts | 306° |
| 2026-04-20 02:32 | 21.18034 | -86.91481 | 3032 ft | 260 kts | 306° |
| 2026-04-20 02:32 | 21.18992 | -86.93021 | 3027 ft | 235 kts | 306° |
| 2026-04-20 02:33 | 21.19783 | -86.94457 | 3025 ft | 217 kts | 292° |
| 2026-04-20 02:33 | 21.20016 | -86.96076 | 3023 ft | 217 kts | 265° |
| 2026-04-20 02:33 | 21.19570 | -86.97544 | 3048 ft | 204 kts | 238° |
| 2026-04-20 02:33 | 21.18618 | -86.98628 | 3041 ft | 200 kts | 213° |
| 2026-04-20 02:34 | 21.17445 | -86.99412 | 3033 ft | 198 kts | 211° |
| 2026-04-20 02:34 | 21.16276 | -87.00193 | 3032 ft | 198 kts | 210° |
| 2026-04-20 02:34 | 21.15012 | -87.00708 | 3033 ft | 194 kts | 182° |
| 2026-04-20 02:34 | 21.13690 | -87.00496 | 2929 ft | 194 kts | 153° |
| 2026-04-20 02:35 | 21.12653 | -86.99629 | 2559 ft | 188 kts | 122° |
| 2026-04-20 02:35 | 21.11950 | -86.98513 | 2293 ft | 179 kts | 119° |
| 2026-04-20 02:35 | 21.11282 | -86.97442 | 2071 ft | 166 kts | 118° |
| 2026-04-20 02:35 | 21.10669 | -86.96461 | 1866 ft | 152 kts | 118° |
| 2026-04-20 02:36 | 21.10098 | -86.95545 | 1659 ft | 144 kts | 118° |
| 2026-04-20 02:36 | 21.09549 | -86.94665 | 1461 ft | 141 kts | 118° |
| 2026-04-20 02:36 | 21.09007 | -86.93797 | 1288 ft | 140 kts | 118° |
| 2026-04-20 02:36 | 21.08469 | -86.92934 | 1101 ft | 139 kts | 118° |
| 2026-04-20 02:37 | 21.07931 | -86.92073 | 929 ft | 139 kts | 118° |
| 2026-04-20 02:37 | 21.07388 | -86.91203 | 745 ft | 142 kts | 120° |
| 2026-04-20 02:37 | 21.06832 | -86.90314 | 569 ft | 144 kts | 120° |
| 2026-04-20 02:37 | 21.06275 | -86.89424 | 361 ft | 144 kts | 119° |
| 2026-04-20 02:38 | 21.05725 | -86.88544 | 150 ft | 141 kts | 119° |
| 2026-04-20 02:38 | 21.05180 | -86.87676 | 42 ft | 136 kts | 121° |
| 2026-04-20 02:38 | 21.04714 | -86.86926 | 31 ft | 102 kts | 122° |
| 2026-04-20 02:38 | 21.04443 | -86.86500 | 32 ft | 36 kts | 133° |
| 2026-04-20 02:39 | 21.04236 | -86.86358 | 36 ft | 34 kts | 154° |
| 2026-04-20 02:39 | 21.04114 | -86.86288 | 42 ft | 15 kts | 139° |
| 2026-04-20 02:39 | 21.04043 | -86.86220 | 45 ft | 14 kts | 181° |
| 2026-04-20 02:39 | 21.03961 | -86.86271 | 51 ft | 12 kts | 214° |
| 2026-04-20 02:40 | 21.03920 | -86.86299 | 51 ft | 0 kts | 213° |